createdAt,value
2023-01-19T00:02:27.256Z,4.00
2023-01-19T00:04:59.887Z,4.00
2023-01-19T00:07:32.987Z,4.10
2023-01-19T00:10:06.628Z,4.10
2023-01-19T00:12:39.151Z,4.10
2023-01-19T00:15:12.426Z,4.10
2023-01-19T00:17:45.191Z,4.10
2023-01-19T00:20:17.937Z,4.10
2023-01-19T00:22:51.135Z,4.10
2023-01-19T00:25:23.838Z,4.10
2023-01-19T00:27:57.138Z,4.00
2023-01-19T00:30:30.317Z,4.00
2023-01-19T00:33:03.301Z,4.10
2023-01-19T00:35:36.641Z,4.00
2023-01-19T00:38:10.595Z,4.00
2023-01-19T00:40:43.205Z,4.00
2023-01-19T00:43:15.839Z,3.90
2023-01-19T00:45:48.452Z,3.90
2023-01-19T00:48:20.850Z,3.90
2023-01-19T00:50:53.357Z,4.00
2023-01-19T00:53:26.037Z,4.00
2023-01-19T00:55:58.834Z,3.90
2023-01-19T00:58:31.255Z,3.90
2023-01-19T01:01:05.026Z,4.00
2023-01-19T01:03:37.659Z,3.90
2023-01-19T01:06:10.198Z,4.00
2023-01-19T01:08:42.658Z,3.90
2023-01-19T01:11:15.400Z,3.90
2023-01-19T01:13:48.157Z,3.90
2023-01-19T01:16:21.261Z,3.90
2023-01-19T01:18:53.764Z,3.90
2023-01-19T01:21:26.382Z,3.90
2023-01-19T01:23:58.875Z,3.90
2023-01-19T01:26:31.972Z,3.90
2023-01-19T01:29:06.540Z,3.90
2023-01-19T01:31:39.227Z,3.90
2023-01-19T01:34:11.732Z,3.90
2023-01-19T01:36:44.439Z,3.90
2023-01-19T01:39:16.816Z,3.90
2023-01-19T01:41:49.683Z,3.90
2023-01-19T01:44:52.889Z,3.90
2023-01-19T01:47:44.641Z,3.90
2023-01-19T01:50:20.877Z,3.90
2023-01-19T01:53:06.846Z,4.00
2023-01-19T01:55:46.687Z,3.90
2023-01-19T01:58:19.216Z,3.90
2023-01-19T02:01:07.909Z,4.00
2023-01-19T02:03:40.477Z,4.00
2023-01-19T02:06:14.995Z,4.00
2023-01-19T02:09:09.841Z,4.00
2023-01-19T02:11:58.735Z,4.00
2023-01-19T02:14:31.270Z,4.00
2023-01-19T02:17:04.245Z,4.00
2023-01-19T02:19:45.064Z,3.90
2023-01-19T02:22:40.750Z,3.90
2023-01-19T02:25:13.766Z,3.90
2023-01-19T02:27:47.124Z,3.90
2023-01-19T02:30:19.998Z,3.90
2023-01-19T02:32:52.567Z,3.90
2023-01-19T02:35:25.535Z,3.90
2023-01-19T02:37:58.949Z,3.90
2023-01-19T02:40:31.807Z,3.90
2023-01-19T02:43:06.851Z,3.90
2023-01-19T02:45:39.933Z,3.90
2023-01-19T02:48:12.720Z,3.90
2023-01-19T02:50:49.636Z,3.90
2023-01-19T02:53:49.876Z,3.80
2023-01-19T02:56:25.998Z,3.80
2023-01-19T02:59:08.734Z,3.70
2023-01-19T03:01:54.530Z,3.60
2023-01-19T03:04:37.949Z,3.60
2023-01-19T03:07:14.895Z,3.50
2023-01-19T03:09:59.554Z,3.50
2023-01-19T03:12:45.909Z,3.40
2023-01-19T03:15:22.439Z,3.50
2023-01-19T03:17:58.554Z,3.30
2023-01-19T03:20:31.676Z,3.30
2023-01-19T03:23:08.906Z,3.30
2023-01-19T03:25:44.646Z,3.20
2023-01-19T03:28:20.324Z,3.10
2023-01-19T03:30:59.044Z,3.00
2023-01-19T03:33:35.951Z,2.90
2023-01-19T03:36:15.123Z,2.90
2023-01-19T03:38:50.600Z,2.90
2023-01-19T03:41:25.192Z,3.00
2023-01-19T03:43:59.071Z,2.90
2023-01-19T03:46:33.006Z,3.00
2023-01-19T03:49:05.959Z,3.00
2023-01-19T03:51:40.017Z,3.00
2023-01-19T03:54:12.764Z,3.00
2023-01-19T03:56:45.139Z,2.90
2023-01-19T03:59:17.789Z,2.90
2023-01-19T04:01:50.378Z,2.80
2023-01-19T04:04:23.008Z,2.80
2023-01-19T04:06:55.635Z,2.80
2023-01-19T04:09:28.924Z,2.70
2023-01-19T04:12:02.118Z,2.70
2023-01-19T04:14:34.723Z,2.70
2023-01-19T04:17:08.305Z,2.70
2023-01-19T04:19:40.880Z,2.70
2023-01-19T04:22:13.363Z,2.70
2023-01-19T04:24:45.907Z,2.70
2023-01-19T04:27:19.086Z,2.70
2023-01-19T04:29:52.242Z,2.70
2023-01-19T04:32:24.838Z,2.70
2023-01-19T04:34:57.548Z,2.70
2023-01-19T04:37:30.001Z,2.60
2023-01-19T04:40:02.588Z,2.60
2023-01-19T04:42:35.086Z,3.20
2023-01-19T04:45:08.716Z,2.60
2023-01-19T04:47:42.859Z,2.60
2023-01-19T04:50:15.480Z,2.70
2023-01-19T04:52:49.082Z,2.70
2023-01-19T04:55:21.620Z,2.80
2023-01-19T04:57:54.459Z,2.80
2023-01-19T05:00:27.339Z,2.80
2023-01-19T05:03:00.247Z,2.80
2023-01-19T05:05:33.458Z,2.80
2023-01-19T05:08:06.322Z,2.80
2023-01-19T05:10:39.094Z,2.90
2023-01-19T05:13:11.594Z,2.90
2023-01-19T05:15:44.067Z,2.90
2023-01-19T05:18:16.436Z,2.90
2023-01-19T05:20:48.976Z,2.90
2023-01-19T05:23:21.469Z,2.90
2023-01-19T05:25:56.516Z,2.90
2023-01-19T05:28:29.516Z,2.90
2023-01-19T05:31:02.128Z,2.90
2023-01-19T05:33:34.971Z,2.90
2023-01-19T05:36:07.752Z,2.90
2023-01-19T05:38:40.241Z,2.90
2023-01-19T05:41:12.850Z,2.90
2023-01-19T05:43:45.441Z,2.90
2023-01-19T05:46:18.049Z,2.90
2023-01-19T05:48:51.068Z,2.90
2023-01-19T05:51:23.765Z,2.90
2023-01-19T05:53:56.064Z,2.90
2023-01-19T05:56:28.659Z,2.90
2023-01-19T05:59:01.791Z,2.90
2023-01-19T06:01:37.434Z,2.80
2023-01-19T06:04:11.166Z,2.80
2023-01-19T06:06:43.622Z,2.80
2023-01-19T06:09:17.477Z,2.80
2023-01-19T06:11:50.182Z,2.80
2023-01-19T06:14:22.747Z,2.80
2023-01-19T06:16:55.602Z,2.80
2023-01-19T06:19:28.412Z,2.80
2023-01-19T06:22:01.167Z,2.80
2023-01-19T06:24:33.848Z,2.90
2023-01-19T06:27:06.878Z,2.90
2023-01-19T06:29:41.201Z,2.90
2023-01-19T06:32:13.761Z,2.90
2023-01-19T06:34:46.996Z,2.90
2023-01-19T06:37:19.636Z,2.90
2023-01-19T06:39:52.206Z,2.90
2023-01-19T06:42:24.741Z,2.90
2023-01-19T06:44:57.173Z,2.90
2023-01-19T06:47:30.688Z,3.00
2023-01-19T06:50:03.634Z,3.00
2023-01-19T06:52:42.836Z,3.00
2023-01-19T06:55:16.385Z,3.00
2023-01-19T06:57:48.967Z,3.00
2023-01-19T07:00:22.189Z,3.00
2023-01-19T07:02:54.843Z,3.00
2023-01-19T07:05:27.415Z,2.90
2023-01-19T07:08:00.046Z,2.90
2023-01-19T07:11:22.337Z,2.90
2023-01-19T07:13:25.045Z,2.90
2023-01-19T07:15:57.521Z,2.90
2023-01-19T07:18:29.990Z,2.90
2023-01-19T07:21:02.699Z,2.80
2023-01-19T07:23:35.288Z,2.90
2023-01-19T07:26:07.842Z,2.90
2023-01-19T07:28:40.483Z,2.90
2023-01-19T07:31:13.105Z,2.90
2023-01-19T07:33:46.128Z,2.90
2023-01-19T07:36:18.616Z,2.90
2023-01-19T07:38:51.238Z,2.90
2023-01-19T07:41:23.748Z,3.00
2023-01-19T07:43:56.320Z,3.00
2023-01-19T07:46:28.908Z,3.00
2023-01-19T07:49:01.461Z,3.00
2023-01-19T07:51:33.993Z,3.00
2023-01-19T07:54:08.688Z,3.00
2023-01-19T07:56:41.153Z,3.00
2023-01-19T07:59:13.786Z,3.00
2023-01-19T08:01:46.310Z,3.00
2023-01-19T08:04:19.300Z,1.90
2023-01-19T08:06:52.894Z,3.00
2023-01-19T08:09:25.695Z,3.10
2023-01-19T08:11:58.281Z,3.10
2023-01-19T08:14:31.260Z,3.00
2023-01-19T08:17:04.192Z,3.10
2023-01-19T08:19:37.269Z,3.10
2023-01-19T08:22:09.738Z,3.00
2023-01-19T08:24:42.266Z,3.10
2023-01-19T08:28:17.709Z,3.10
2023-01-19T08:30:55.316Z,3.10
2023-01-19T08:33:27.961Z,3.10
2023-01-19T08:36:00.687Z,3.10
2023-01-19T08:38:34.971Z,3.00
2023-01-19T08:41:07.856Z,3.10
2023-01-19T08:43:40.558Z,3.10
2023-01-19T08:46:17.180Z,3.10
2023-01-19T08:48:50.615Z,3.10
2023-01-19T08:51:23.387Z,3.10
2023-01-19T08:53:56.486Z,3.10
2023-01-19T08:56:29.119Z,3.10
2023-01-19T08:59:09.492Z,3.10
2023-01-19T09:01:42.734Z,3.10
2023-01-19T09:04:15.390Z,3.10
2023-01-19T09:06:47.832Z,3.00
2023-01-19T09:09:20.550Z,3.60
2023-01-19T09:11:55.877Z,3.00
2023-01-19T09:14:28.788Z,3.00
2023-01-19T09:17:01.482Z,3.00
2023-01-19T09:19:35.191Z,3.00
2023-01-19T09:22:07.859Z,3.00
2023-01-19T09:24:40.552Z,3.00
2023-01-19T09:27:13.617Z,3.00
2023-01-19T09:29:53.098Z,3.10
2023-01-19T09:32:25.732Z,3.10
2023-01-19T09:34:58.448Z,3.10
2023-01-19T09:37:31.101Z,3.10
2023-01-19T09:40:05.766Z,3.10
2023-01-19T09:42:44.838Z,3.10
2023-01-19T09:45:38.969Z,3.10
2023-01-19T09:48:31.618Z,3.10
2023-01-19T09:51:08.695Z,3.10
2023-01-19T09:54:05.179Z,3.10
2023-01-19T09:56:38.063Z,3.10
2023-01-19T09:59:15.445Z,3.10
2023-01-19T10:02:06.075Z,3.10
2023-01-19T10:04:41.635Z,3.10
2023-01-19T10:07:33.444Z,3.20
2023-01-19T10:10:24.905Z,3.10
2023-01-19T10:13:14.468Z,3.20
2023-01-19T10:16:01.273Z,3.20
2023-01-19T10:18:47.731Z,3.10
2023-01-19T10:21:34.930Z,3.10
2023-01-19T10:24:16.254Z,3.10
2023-01-19T10:26:53.001Z,3.10
2023-01-19T10:29:36.584Z,3.10
2023-01-19T10:32:13.669Z,3.10
2023-01-19T10:34:47.960Z,3.10
2023-01-19T10:37:30.662Z,3.10
2023-01-19T10:40:22.601Z,3.20
2023-01-19T10:42:57.584Z,3.10
2023-01-19T10:45:31.911Z,3.20
2023-01-19T10:48:07.861Z,3.20
2023-01-19T10:50:41.548Z,3.20
2023-01-19T10:53:25.941Z,3.20
2023-01-19T10:56:22.009Z,3.20
2023-01-19T10:58:54.872Z,3.10
2023-01-19T11:01:31.236Z,3.10
2023-01-19T11:04:22.693Z,3.10
2023-01-19T11:07:15.666Z,3.10
2023-01-19T11:09:48.944Z,3.10
2023-01-19T11:12:23.698Z,3.10
2023-01-19T11:14:58.240Z,3.10
2023-01-19T11:17:30.804Z,3.10
2023-01-19T11:20:04.034Z,3.10
2023-01-19T11:22:36.889Z,3.10
2023-01-19T11:25:30.241Z,3.00
2023-01-19T11:28:08.003Z,3.00
2023-01-19T11:30:56.041Z,2.90
2023-01-19T11:33:42.157Z,2.90
2023-01-19T11:36:21.644Z,2.90
2023-01-19T11:38:57.169Z,2.90
2023-01-19T11:41:37.405Z,2.80
2023-01-19T11:44:23.057Z,2.90
2023-01-19T11:47:03.936Z,2.90
2023-01-19T11:49:53.792Z,2.80
2023-01-19T11:52:45.583Z,2.80
2023-01-19T11:55:37.192Z,2.80
2023-01-19T11:58:18.164Z,2.80
2023-01-19T12:00:57.636Z,2.80
2023-01-19T12:03:49.524Z,2.80
2023-01-19T12:06:31.010Z,2.70
2023-01-19T12:09:11.282Z,2.70
2023-01-19T12:11:49.580Z,2.70
2023-01-19T12:14:29.198Z,2.70
2023-01-19T12:17:05.873Z,2.70
2023-01-19T12:20:05.081Z,2.70
2023-01-19T12:22:49.561Z,2.70
2023-01-19T12:25:27.321Z,2.80
2023-01-19T12:28:00.504Z,2.80
2023-01-19T12:30:33.595Z,2.80
2023-01-19T12:33:36.058Z,2.80
2023-01-19T12:36:24.172Z,2.80
2023-01-19T12:39:17.263Z,2.80
2023-01-19T12:42:04.365Z,2.70
2023-01-19T12:44:37.220Z,2.80
2023-01-19T12:47:13.227Z,2.80
2023-01-19T12:49:51.440Z,2.80
2023-01-19T12:52:24.996Z,2.80
2023-01-19T12:55:04.206Z,2.70
2023-01-19T12:57:47.575Z,2.70
2023-01-19T13:00:24.093Z,2.80
2023-01-19T13:02:58.950Z,2.80
2023-01-19T13:05:33.184Z,2.80
2023-01-19T13:08:07.444Z,2.70
2023-01-19T13:11:13.982Z,2.80
2023-01-19T13:14:06.989Z,2.70
2023-01-19T13:16:40.425Z,2.80
2023-01-19T13:19:18.794Z,2.80
2023-01-19T13:21:51.799Z,2.80
2023-01-19T13:24:25.011Z,2.70
2023-01-19T13:27:04.224Z,2.70
2023-01-19T13:29:43.076Z,2.70
2023-01-19T13:32:19.541Z,3.30
2023-01-19T13:34:58.816Z,2.70
2023-01-19T13:37:39.097Z,2.60
2023-01-19T13:40:23.801Z,2.60
2023-01-19T13:42:57.282Z,2.50
2023-01-19T13:45:38.752Z,2.60
2023-01-19T13:48:17.821Z,2.50
2023-01-19T13:51:07.812Z,2.50
2023-01-19T13:53:40.560Z,2.50
2023-01-19T13:56:21.938Z,2.50
2023-01-19T13:59:12.790Z,2.50
2023-01-19T14:01:47.104Z,2.40
2023-01-19T14:04:31.522Z,3.30
2023-01-19T14:07:14.047Z,2.50
2023-01-19T14:09:48.108Z,2.40
2023-01-19T14:12:21.029Z,2.40
2023-01-19T14:14:53.563Z,2.40
2023-01-19T14:17:28.890Z,2.40
2023-01-19T14:20:01.404Z,2.30
2023-01-19T14:22:44.142Z,2.30
2023-01-19T14:25:33.835Z,2.30
2023-01-19T14:28:39.759Z,2.30
2023-01-19T14:31:25.172Z,2.30
2023-01-19T14:33:58.759Z,2.30
2023-01-19T14:36:39.288Z,2.30
2023-01-19T14:39:23.814Z,2.20
2023-01-19T14:41:59.920Z,2.20
2023-01-19T14:44:37.390Z,2.20
2023-01-19T14:47:28.390Z,2.20
2023-01-19T14:50:07.707Z,2.20
2023-01-19T14:52:44.350Z,2.20
2023-01-19T14:55:21.448Z,2.20
2023-01-19T14:57:55.459Z,2.20
2023-01-19T15:00:28.478Z,2.20
2023-01-19T15:03:01.241Z,2.20
2023-01-19T15:05:34.425Z,2.20
2023-01-19T15:08:08.725Z,2.20
2023-01-19T15:10:42.500Z,2.30
2023-01-19T15:13:19.539Z,2.30
2023-01-19T15:15:52.909Z,2.30
2023-01-19T15:18:27.596Z,2.30
2023-01-19T15:21:03.622Z,2.30
2023-01-19T15:23:36.241Z,2.30
2023-01-19T15:26:16.561Z,2.30
2023-01-19T15:28:49.805Z,2.20
2023-01-19T15:31:26.193Z,2.20
2023-01-19T15:33:58.830Z,2.20
2023-01-19T15:36:31.361Z,2.20
2023-01-19T15:39:04.203Z,2.20
2023-01-19T15:41:39.703Z,2.20
2023-01-19T15:44:13.380Z,2.20
2023-01-19T15:46:46.490Z,2.20
2023-01-19T15:49:19.416Z,2.20
2023-01-19T15:51:52.154Z,2.30
2023-01-19T15:54:25.875Z,2.20
2023-01-19T15:56:58.500Z,2.30
2023-01-19T15:59:31.228Z,2.30
2023-01-19T16:02:06.103Z,2.30
2023-01-19T16:04:38.755Z,2.30
2023-01-19T16:07:12.745Z,2.30
2023-01-19T16:09:45.786Z,2.30
2023-01-19T16:12:19.133Z,2.30
2023-01-19T16:14:51.938Z,2.30
2023-01-19T16:17:24.759Z,2.30
2023-01-19T16:19:57.577Z,2.30
2023-01-19T16:22:30.298Z,2.30
2023-01-19T16:25:03.263Z,2.30
2023-01-19T16:27:35.963Z,2.30
2023-01-19T16:30:12.045Z,2.30
2023-01-19T16:32:45.402Z,2.30
2023-01-19T16:35:19.204Z,2.30
2023-01-19T16:37:52.183Z,2.30
2023-01-19T16:40:26.156Z,2.30
2023-01-19T16:42:58.873Z,2.40
2023-01-19T16:45:31.740Z,2.30
2023-01-19T16:48:04.545Z,2.30
2023-01-19T16:50:37.059Z,2.40
2023-01-19T16:53:09.770Z,2.30
2023-01-19T16:55:42.590Z,2.30
2023-01-19T16:58:15.303Z,2.30
2023-01-19T17:00:48.100Z,2.30
2023-01-19T17:03:20.939Z,2.20
2023-01-19T17:05:53.572Z,2.20
2023-01-19T17:08:26.266Z,2.20
2023-01-19T17:11:01.459Z,2.30
2023-01-19T17:13:34.437Z,2.30
2023-01-19T17:16:08.026Z,2.20
2023-01-19T17:18:41.281Z,2.20
2023-01-19T17:21:18.133Z,2.20
2023-01-19T17:23:53.763Z,2.20
2023-01-19T17:26:31.145Z,2.20
2023-01-19T17:29:07.605Z,2.20
2023-01-19T17:31:40.612Z,2.30
2023-01-19T17:34:13.331Z,2.30
2023-01-19T17:36:45.955Z,2.30
2023-01-19T17:39:18.871Z,2.30
2023-01-19T17:41:52.068Z,2.20
2023-01-19T17:44:25.087Z,2.20
2023-01-19T17:46:59.828Z,2.30
2023-01-19T17:49:32.812Z,2.40
2023-01-19T17:52:05.723Z,2.30
2023-01-19T17:54:38.317Z,2.30
2023-01-19T17:57:10.871Z,2.30
2023-01-19T17:59:44.220Z,2.30
2023-01-19T18:02:16.949Z,2.30
2023-01-19T18:04:52.717Z,2.40
2023-01-19T18:07:25.548Z,2.30
2023-01-19T18:10:00.891Z,2.30
2023-01-19T18:12:34.068Z,2.40
2023-01-19T18:15:07.962Z,2.40
2023-01-19T18:17:40.425Z,2.40
2023-01-19T18:20:13.404Z,2.40
2023-01-19T18:22:46.151Z,2.40
2023-01-19T18:25:18.691Z,2.40
2023-01-19T18:27:51.316Z,2.40
2023-01-19T18:30:24.231Z,2.40
2023-01-19T18:32:56.706Z,2.50
2023-01-19T18:35:55.470Z,2.40
2023-01-19T18:38:28.073Z,2.40
2023-01-19T18:41:02.879Z,2.40
2023-01-19T18:43:35.514Z,2.40
2023-01-19T18:46:08.392Z,2.40
2023-01-19T18:48:41.028Z,2.80
2023-01-19T18:51:15.250Z,2.40
2023-01-19T18:53:47.807Z,2.40
2023-01-19T18:56:20.629Z,2.40
2023-01-19T18:58:53.583Z,2.40
2023-01-19T19:01:32.515Z,2.40
2023-01-19T19:04:05.931Z,2.40
2023-01-19T19:06:38.584Z,2.60
2023-01-19T19:09:11.314Z,2.40
2023-01-19T19:11:43.889Z,2.50
2023-01-19T19:14:16.981Z,2.40
2023-01-19T19:16:49.620Z,2.70
2023-01-19T19:19:22.300Z,2.40
2023-01-19T19:21:55.028Z,2.50
2023-01-19T19:24:27.860Z,2.40
2023-01-19T19:27:00.737Z,2.40
2023-01-19T19:29:33.884Z,2.40
2023-01-19T19:32:07.039Z,2.40
2023-01-19T19:34:39.949Z,2.40
2023-01-19T19:37:13.097Z,2.40
2023-01-19T19:39:45.914Z,2.40
2023-01-19T19:42:18.559Z,2.50
2023-01-19T19:44:53.081Z,2.50
2023-01-19T19:47:25.795Z,2.50
2023-01-19T19:49:59.391Z,2.60
2023-01-19T19:52:44.420Z,2.50
2023-01-19T19:55:17.187Z,2.50
2023-01-19T19:57:50.039Z,2.50
2023-01-19T20:00:24.024Z,2.50
2023-01-19T20:02:57.139Z,2.50
2023-01-19T20:05:29.646Z,2.50
2023-01-19T20:08:02.417Z,2.50
2023-01-19T20:10:35.089Z,2.50
2023-01-19T20:13:09.339Z,2.50
2023-01-19T20:15:42.099Z,2.60
2023-01-19T20:18:16.031Z,2.70
2023-01-19T20:20:48.780Z,2.70
2023-01-19T20:23:21.574Z,2.70
2023-01-19T20:25:54.677Z,2.70
2023-01-19T20:28:27.406Z,2.70
2023-01-19T20:31:17.635Z,2.60
2023-01-19T20:33:52.641Z,2.60
2023-01-19T20:36:25.182Z,2.60
2023-01-19T20:38:58.768Z,2.60
2023-01-19T20:41:31.264Z,2.60
2023-01-19T20:44:04.119Z,3.00
2023-01-19T20:46:36.796Z,2.90
2023-01-19T20:49:10.115Z,2.50
2023-01-19T20:51:45.328Z,2.50
2023-01-19T20:54:21.444Z,2.60
2023-01-19T20:56:54.537Z,2.40
2023-01-19T20:59:27.234Z,2.40
2023-01-19T21:02:00.277Z,2.40
2023-01-19T21:04:32.975Z,2.40
2023-01-19T21:07:05.803Z,2.40
2023-01-19T21:09:39.258Z,2.50
2023-01-19T21:12:12.034Z,3.30
2023-01-19T21:14:46.118Z,2.50
2023-01-19T21:17:20.100Z,2.40
2023-01-19T21:19:56.906Z,2.50
2023-01-19T21:22:32.691Z,2.50
2023-01-19T21:25:05.967Z,2.50
2023-01-19T21:27:38.396Z,2.50
2023-01-19T21:30:11.814Z,2.50
2023-01-19T21:32:44.397Z,2.50
2023-01-19T21:35:17.030Z,2.40
2023-01-19T21:37:49.579Z,2.40
2023-01-19T21:40:23.291Z,2.30
2023-01-19T21:42:55.901Z,2.30
2023-01-19T21:45:29.012Z,2.40
2023-01-19T21:48:01.593Z,2.40
2023-01-19T21:50:34.848Z,2.30
2023-01-19T21:53:09.824Z,2.30
2023-01-19T21:55:45.792Z,2.20
2023-01-19T21:58:18.302Z,2.30
2023-01-19T22:00:51.419Z,2.30
2023-01-19T22:03:25.702Z,2.30
2023-01-19T22:06:04.316Z,2.40
2023-01-19T22:08:37.171Z,2.40
2023-01-19T22:11:12.122Z,2.50
2023-01-19T22:13:44.597Z,2.50
2023-01-19T22:16:20.184Z,2.50
2023-01-19T22:18:56.599Z,2.50
2023-01-19T22:21:33.502Z,2.50
2023-01-19T22:24:07.108Z,2.50
2023-01-19T22:26:39.669Z,2.50
2023-01-19T22:29:13.488Z,2.50
2023-01-19T22:31:47.368Z,2.50
2023-01-19T22:34:19.844Z,2.50
2023-01-19T22:36:52.547Z,2.50
2023-01-19T22:39:25.024Z,2.50
2023-01-19T22:41:57.611Z,2.50
2023-01-19T22:44:30.056Z,2.50
2023-01-19T22:47:02.862Z,2.50
2023-01-19T22:49:35.424Z,2.60
2023-01-19T22:52:08.059Z,2.50
2023-01-19T22:54:40.740Z,2.50
2023-01-19T22:57:13.289Z,2.70
2023-01-19T22:59:46.299Z,2.60
2023-01-19T23:02:20.749Z,2.60
2023-01-19T23:04:53.550Z,3.00
2023-01-19T23:07:26.082Z,3.20
2023-01-19T23:10:13.801Z,2.60
2023-01-19T23:12:46.855Z,2.70
2023-01-19T23:15:19.361Z,2.60
2023-01-19T23:17:53.834Z,2.70
2023-01-19T23:20:26.289Z,2.70
2023-01-19T23:22:58.822Z,2.70
2023-01-19T23:25:32.402Z,2.70
2023-01-19T23:28:05.180Z,2.70
2023-01-19T23:30:37.920Z,2.60
2023-01-19T23:33:10.471Z,2.70
2023-01-19T23:35:42.972Z,2.70
2023-01-19T23:38:15.535Z,2.70
2023-01-19T23:40:48.101Z,2.70
2023-01-19T23:43:20.691Z,2.70
2023-01-19T23:45:53.432Z,2.70
2023-01-19T23:48:26.281Z,2.70
2023-01-19T23:50:59.022Z,2.60
2023-01-19T23:53:31.595Z,2.60
2023-01-19T23:56:14.840Z,2.60
2023-01-19T23:58:52.277Z,2.60
